Hovedside
METAR-TAF:

METAR-TAF

Lufthavner :

Linköping lufthavn

Linköping, Sverige

breddegrad: 58-24N, lengdegrad: 015-41E, høyde over havet: 52 m

Gjeldene værobservasjon

Denne rapporten ble laget for 15 minutter siden, klokken 01:20 UTC
Vind 9 kt fra Nord, skiftende mellom Nord-nordvest og Nord-nordøst
Temperatur 2°C
Luftfuktighet 100%
Trykk 1007 hPa
Sikt 10 km eller mer

METAR: ESSL 110120Z AUTO 35009KT 330V030 9999 OVC005/// 02/02 Q1007 RERA

Tid: 02:35 (01:35 UTC)

Varsel

Denne rapporten ble laget for 5 timer og 5 minutter siden, klokken 20:30 UTC
Varsel gyldig fra 10. klokken 21 UTC til 10. klokken 23 UTC
Vind 8 kt fra Nord
Sikt 10 km eller mer
Brutte skyer i en høyde av 900 ft
Midlertidig
fra 10. klokken 21 UTC til 10. klokken 23 UTC
Sikt: 2000 m
Brutte skyer i en høyde av 400 ft
snø, dis

TAF: ESSL 102030Z 1021/1023 01008KT 9999 BKN009 TEMPO 1021/1023 2000 SN BR BKN004

Værobservasjoner og værvarsel for over 4000 flyplasser (METAR- og TAF-rapporter).

Tilgjengelige stasjoner er representert av de røde og gule prikkene på kartet.

Hold musepekeren over prikken for å se navnet på stasjonen.

Klikk så for å se værobservasjoner og -varsler.

For å forandre kartet kan du klikke på den grønne knappen med svart kryss for å zoome inn, på den grønne knappen med strek for å zoome ut, eller på de grønne pilene for å se tilstøtende kart.


METAR-TAF: